Sunday, August 28, 2016
20:46 UTC
  |  Log In   |  Register Free
Airport Search:

Independence Municipal Airport
(KIDP)

FAA data valid effective Jul 21 2016 - Sep 15 2016 (unless otherwise noted).

 
 
 
 
 
 
 
 
 
 
 
 
 
 
Current Aviation Weather for KIDP

Weather Summary


The most recent METAR observation for IDP was updated at: 12:55 UTC
METAR for IDP is not available. Closest METAR is for
METAR

METAR KIDP 282035Z 10011G20KT 070V130 10SM TS BKN050 BKN070 BKN090 30/18 A3007 RMK AO2 LTG DSNT NE AND E

METAR KIDP 282015Z 03009KT 10SM VCTS SCT070 32/19 A3006 RMK AO2 LTG DSNT NW THRU E

METAR KIDP 281955Z 10005KT 10SM SCT070 SCT080 32/17 A3007 RMK AO2 LTG DSNT NE AND NW

METAR KIDP 281935Z 12005KT 10SM CLR 32/17 A3009 RMK AO2 LTG DSNT N AND NE

METAR KIDP 281915Z 14008KT 10SM VCTS SCT045 32/20 A3009 RMK AO2

METAR KIDP 281855Z 16005KT 10SM BKN047 BKN050 31/19 A3010 RMK AO2

METAR KIDP 281835Z 00000KT 10SM SCT043 SCT050 BKN060 31/20 A3010 RMK AO2 LTG DSNT W

METAR KIDP 281815Z 00000KT 10SM CLR 32/19 A3010 RMK AO2 LTG DSNT W

METAR KIDP 281755Z 15006KT 10SM VCTS SCT037 SCT060 SCT080 31/20 A3011 RMK AO2 LTG DSNT SW AND W

METAR KBVO 281953Z VRB06KT 10SM FEW050 34/21 A3006 RMK AO2 SLP166 T03440206

METAR KCFV 282010Z 06010KT 10SM TS SCT049 BKN075 BKN100 31/21 A3006 RMK AO2 WSHFT1950 LTG DSNT NW TSE1954B04 T03110211

METAR KCNU 281952Z 13008KT 10SM CLR 31/22 A3008 RMK AO2 LTG DSNT S AND SW SLP175 T03060222

TAF for IDP is not available.
TAF

KBVO - TAF KBVO 281736Z 2818/2918 15005KT P6SM BKN040

KBVO - FM290100 00000KT P6SM SCT250

KBVO - FM291600 VRB03KT P6SM SCT040 =

KCNU - TAF KCNU 281721Z 2818/2918 18005KT P6SM VCTS SCT040CB BKN060

KCNU - TEMPO 2818/2821 5SM TSRA BKN035CB

KCNU - FM290100 07005KT P6SM BKN035 OVC150 =

GlobalAir.com is loading additional information.
 Current Weather at IDP
88.0 F° (31.0 C°)

South winds at 5.8 mph
Pressure:
30.10 in
Humidity:
49%
Wind:
South at 5.8 mph
Dew Point:
66.2 F° (19.0 C°)
Visibility:
10.00 mi
IDP NOAA Radar




Find All Airport Services Find A Hotel Find A Rental Car Find A Golf Course Find A Restaurant $100 Hamburger



Airport Weather Forecast for KIDP

Translated METAR for KIDP (2035 UTC)
METAR:
KIDP 282035Z AUTO Independence Municipal, Independence, KS (KIDP). Aug 28, 2035Z, Automated. Thunderstorms, Wind from 100° at 11 knots with gusts to 20 knots variable 070° to 130°, 10 statute miles visibility, Ceiling is Broken at 5,000 feet, Broken Clouds at 7,000 feet, Broken Clouds at 9,000 feet, Temperature 30°C, Dewpoint 18°C, Altimeter is 30.07. Remarks: automated station with precipitation discriminator lightning distant northeast and E
Conditions at:
KIDP (Independence Muni, KS) observed 2035 UTC 28 August 2016
Temperature:
88.0 F° (31.0 C°)
Dewpoint:
not reported - refer to area weather report
Pressure:
30.10 Hg
Winds:
not reported
Visibility:
10.00
Ceiling:
at least 12,000 feet AGL
Clouds:
not reported - refer to area weather report
Remarks:
site is un-manned

Translated TAF for TAF for IDP is not available. Refer to local area forecast.
FBO's on the Field
FBO Company Facility Photos Services Transportation Aviation Fuel Prices: Prices include tax
Catering Weather Repair Courtesy Rental Type 100LL JetA JetA+ MOGAS 8087
 
City of Independence

This FBO has not yet been rated
FS:Phillips 66
Last Updated: Jul-22
Login to update fuel prices
SS:
Contact City of IndependenceMore FBO Information
 
Add another FBO Facility Photos Catering Weather Repair Courtesy Rental Type 100LL JetA JetA+ MOGAS 8087
Services Transportation Aviation Fuel Prices: Prices include tax


model-print
model-print
model-print
model-print